Chicago, Illinois
Traffic Map
Current Weather Conditions
Chicago, Illinois
Overcast Haze
Overcast
29°
Feels Like: 29°
Wind Chill: 29° Ceiling: 800
Heat Index: 29° Visibility: 2.5mi
Dew Point: 25° Wind: 3mph
Humidity: 85% Direction: 50° (NE)
Pressure: 29.99in Gusts: 0mph
Raw Report DataKMDW 271013Z 05003KT 2 1/2SM BR OVC008 M02/M04 A2999 RMK AO2 T10171039
Traffic Incident Summary
Active as of:
Severity:
Category:
InformationThere was an issue retrieving the traffic information for this location. Please try a different location or try again shortly.
Advertisements
Track Severe Weather on mobile